sensor_id;sensor_type;location;lat;lon;timestamp;temperature;humidity
6421;DHT22;3243;50.958;7.012;2024-02-14T00:01:07;9.10;99.90
6421;DHT22;3243;50.958;7.012;2024-02-14T00:03:36;9.20;99.90
6421;DHT22;3243;50.958;7.012;2024-02-14T00:06:05;9.20;99.90
6421;DHT22;3243;50.958;7.012;2024-02-14T00:08:32;9.20;99.90
6421;DHT22;3243;50.958;7.012;2024-02-14T00:10:59;9.20;99.90
6421;DHT22;3243;50.958;7.012;2024-02-14T00:13:27;9.20;99.90
6421;DHT22;3243;50.958;7.012;2024-02-14T00:15:53;9.30;99.90
6421;DHT22;3243;50.958;7.012;2024-02-14T00:23:16;9.30;99.90
6421;DHT22;3243;50.958;7.012;2024-02-14T00:25:43;9.20;99.90
6421;DHT22;3243;50.958;7.012;2024-02-14T00:28:10;9.30;99.90
6421;DHT22;3243;50.958;7.012;2024-02-14T00:30:37;9.20;99.90
6421;DHT22;3243;50.958;7.012;2024-02-14T00:35:31;9.40;99.90
6421;DHT22;3243;50.958;7.012;2024-02-14T00:40:28;9.40;99.90
6421;DHT22;3243;50.958;7.012;2024-02-14T00:42:54;9.40;99.90
6421;DHT22;3243;50.958;7.012;2024-02-14T00:47:48;9.40;99.90
6421;DHT22;3243;50.958;7.012;2024-02-14T00:50:15;9.40;99.90
6421;DHT22;3243;50.958;7.012;2024-02-14T00:52:42;9.40;99.90
6421;DHT22;3243;50.958;7.012;2024-02-14T01:00:05;9.40;99.90
6421;DHT22;3243;50.958;7.012;2024-02-14T01:02:33;9.40;99.90
6421;DHT22;3243;50.958;7.012;2024-02-14T01:05:00;9.50;99.90
6421;DHT22;3243;50.958;7.012;2024-02-14T01:07:27;9.40;99.90
6421;DHT22;3243;50.958;7.012;2024-02-14T01:12:21;9.50;99.90
6421;DHT22;3243;50.958;7.012;2024-02-14T01:14:47;9.50;99.90
6421;DHT22;3243;50.958;7.012;2024-02-14T01:17:14;9.50;99.90
6421;DHT22;3243;50.958;7.012;2024-02-14T01:19:41;9.50;99.90
6421;DHT22;3243;50.958;7.012;2024-02-14T01:27:03;9.60;99.90
6421;DHT22;3243;50.958;7.012;2024-02-14T01:29:30;9.50;99.90
6421;DHT22;3243;50.958;7.012;2024-02-14T01:31:57;9.60;99.90
6421;DHT22;3243;50.958;7.012;2024-02-14T01:34:23;9.60;99.90
6421;DHT22;3243;50.958;7.012;2024-02-14T01:39:18;9.60;99.90
6421;DHT22;3243;50.958;7.012;2024-02-14T01:41:45;9.60;99.90
6421;DHT22;3243;50.958;7.012;2024-02-14T01:44:16;9.60;99.90
6421;DHT22;3243;50.958;7.012;2024-02-14T01:49:11;9.60;99.90
6421;DHT22;3243;50.958;7.012;2024-02-14T01:51:43;9.60;99.90
6421;DHT22;3243;50.958;7.012;2024-02-14T01:54:15;9.60;99.90
6421;DHT22;3243;50.958;7.012;2024-02-14T01:56:45;9.60;1.00
6421;DHT22;3243;50.958;7.012;2024-02-14T01:59:13;9.60;1.00
6421;DHT22;3243;50.958;7.012;2024-02-14T02:01:42;9.60;1.00
6421;DHT22;3243;50.958;7.012;2024-02-14T02:04:09;9.60;1.00
6421;DHT22;3243;50.958;7.012;2024-02-14T02:06:37;9.70;1.00
6421;DHT22;3243;50.958;7.012;2024-02-14T02:09:04;9.70;99.90
6421;DHT22;3243;50.958;7.012;2024-02-14T02:11:51;9.60;1.00
6421;DHT22;3243;50.958;7.012;2024-02-14T02:14:20;9.60;1.00
6421;DHT22;3243;50.958;7.012;2024-02-14T02:16:48;9.60;1.00
6421;DHT22;3243;50.958;7.012;2024-02-14T02:19:15;9.70;1.00
6421;DHT22;3243;50.958;7.012;2024-02-14T02:21:43;9.60;1.00
6421;DHT22;3243;50.958;7.012;2024-02-14T02:24:13;9.60;1.00
6421;DHT22;3243;50.958;7.012;2024-02-14T02:26:40;9.60;1.00
6421;DHT22;3243;50.958;7.012;2024-02-14T02:29:06;9.60;1.00
6421;DHT22;3243;50.958;7.012;2024-02-14T02:31:33;9.60;1.00
6421;DHT22;3243;50.958;7.012;2024-02-14T02:34:00;9.70;1.00
6421;DHT22;3243;50.958;7.012;2024-02-14T02:36:27;9.60;1.00
6421;DHT22;3243;50.958;7.012;2024-02-14T02:38:56;9.70;1.00
6421;DHT22;3243;50.958;7.012;2024-02-14T02:41:24;9.60;1.00
6421;DHT22;3243;50.958;7.012;2024-02-14T02:43:51;9.70;1.00
6421;DHT22;3243;50.958;7.012;2024-02-14T02:46:20;9.70;1.00
6421;DHT22;3243;50.958;7.012;2024-02-14T02:48:49;9.70;1.00
6421;DHT22;3243;50.958;7.012;2024-02-14T02:51:16;9.70;1.00
6421;DHT22;3243;50.958;7.012;2024-02-14T02:53:45;9.70;1.00
6421;DHT22;3243;50.958;7.012;2024-02-14T02:56:11;9.70;1.00
6421;DHT22;3243;50.958;7.012;2024-02-14T02:58:39;9.70;1.00
6421;DHT22;3243;50.958;7.012;2024-02-14T03:01:08;9.70;1.00
6421;DHT22;3243;50.958;7.012;2024-02-14T03:03:36;9.70;1.00
6421;DHT22;3243;50.958;7.012;2024-02-14T03:06:05;9.70;1.00
6421;DHT22;3243;50.958;7.012;2024-02-14T03:08:32;9.70;1.00
6421;DHT22;3243;50.958;7.012;2024-02-14T03:11:07;9.70;1.00
6421;DHT22;3243;50.958;7.012;2024-02-14T03:13:34;9.70;1.00
6421;DHT22;3243;50.958;7.012;2024-02-14T03:16:02;9.70;1.00
6421;DHT22;3243;50.958;7.012;2024-02-14T03:18:30;9.70;1.00
6421;DHT22;3243;50.958;7.012;2024-02-14T03:20:58;9.70;1.00
6421;DHT22;3243;50.958;7.012;2024-02-14T03:23:25;9.70;1.00
6421;DHT22;3243;50.958;7.012;2024-02-14T03:25:53;9.70;1.00
6421;DHT22;3243;50.958;7.012;2024-02-14T03:28:20;9.80;1.00
6421;DHT22;3243;50.958;7.012;2024-02-14T03:30:47;9.80;1.00
6421;DHT22;3243;50.958;7.012;2024-02-14T03:33:14;9.80;1.00
6421;DHT22;3243;50.958;7.012;2024-02-14T03:35:41;9.70;1.00
6421;DHT22;3243;50.958;7.012;2024-02-14T03:38:09;9.70;1.00
6421;DHT22;3243;50.958;7.012;2024-02-14T03:40:36;9.70;1.00
6421;DHT22;3243;50.958;7.012;2024-02-14T03:43:04;9.70;1.00
6421;DHT22;3243;50.958;7.012;2024-02-14T03:45:31;9.70;1.00
6421;DHT22;3243;50.958;7.012;2024-02-14T03:47:58;9.70;1.00
6421;DHT22;3243;50.958;7.012;2024-02-14T03:50:25;9.80;1.00
6421;DHT22;3243;50.958;7.012;2024-02-14T03:52:52;9.70;1.00
6421;DHT22;3243;50.958;7.012;2024-02-14T03:55:19;9.70;1.00
6421;DHT22;3243;50.958;7.012;2024-02-14T03:57:46;9.80;1.00
6421;DHT22;3243;50.958;7.012;2024-02-14T04:00:14;9.80;1.00
6421;DHT22;3243;50.958;7.012;2024-02-14T04:02:41;9.80;1.00
6421;DHT22;3243;50.958;7.012;2024-02-14T04:05:08;9.80;1.00
6421;DHT22;3243;50.958;7.012;2024-02-14T04:07:36;9.80;1.00
6421;DHT22;3243;50.958;7.012;2024-02-14T04:10:04;9.80;1.00
6421;DHT22;3243;50.958;7.012;2024-02-14T04:12:31;9.80;1.00
6421;DHT22;3243;50.958;7.012;2024-02-14T04:14:58;9.80;1.00
6421;DHT22;3243;50.958;7.012;2024-02-14T04:17:25;9.80;1.00
6421;DHT22;3243;50.958;7.012;2024-02-14T04:19:52;9.80;1.00
6421;DHT22;3243;50.958;7.012;2024-02-14T04:22:19;9.80;1.00
6421;DHT22;3243;50.958;7.012;2024-02-14T04:24:47;9.90;1.00
6421;DHT22;3243;50.958;7.012;2024-02-14T04:27:14;10.10;1.00
6421;DHT22;3243;50.958;7.012;2024-02-14T04:29:44;9.90;1.00
6421;DHT22;3243;50.958;7.012;2024-02-14T04:32:11;9.90;1.00
6421;DHT22;3243;50.958;7.012;2024-02-14T04:34:39;10.00;1.00
6421;DHT22;3243;50.958;7.012;2024-02-14T04:37:06;9.90;1.00
6421;DHT22;3243;50.958;7.012;2024-02-14T04:39:36;10.00;1.00
6421;DHT22;3243;50.958;7.012;2024-02-14T04:42:03;9.90;1.00
6421;DHT22;3243;50.958;7.012;2024-02-14T04:44:32;9.90;1.00
6421;DHT22;3243;50.958;7.012;2024-02-14T04:46:59;9.80;1.00
6421;DHT22;3243;50.958;7.012;2024-02-14T04:49:27;9.80;1.00
6421;DHT22;3243;50.958;7.012;2024-02-14T04:51:56;9.80;1.00
6421;DHT22;3243;50.958;7.012;2024-02-14T04:54:23;9.80;1.00
6421;DHT22;3243;50.958;7.012;2024-02-14T04:56:52;9.80;1.00
6421;DHT22;3243;50.958;7.012;2024-02-14T04:59:24;9.80;1.00
6421;DHT22;3243;50.958;7.012;2024-02-14T05:01:51;9.90;1.00
6421;DHT22;3243;50.958;7.012;2024-02-14T05:04:19;9.80;1.00
6421;DHT22;3243;50.958;7.012;2024-02-14T05:06:47;9.90;1.00
6421;DHT22;3243;50.958;7.012;2024-02-14T05:09:15;9.90;1.00
6421;DHT22;3243;50.958;7.012;2024-02-14T05:11:42;9.90;1.00
6421;DHT22;3243;50.958;7.012;2024-02-14T05:14:09;9.90;1.00
6421;DHT22;3243;50.958;7.012;2024-02-14T05:16:36;10.00;1.00
6421;DHT22;3243;50.958;7.012;2024-02-14T05:19:03;9.90;1.00
6421;DHT22;3243;50.958;7.012;2024-02-14T05:21:30;10.00;1.00
6421;DHT22;3243;50.958;7.012;2024-02-14T05:23:57;10.00;1.00
6421;DHT22;3243;50.958;7.012;2024-02-14T05:26:24;9.90;1.00
6421;DHT22;3243;50.958;7.012;2024-02-14T05:28:51;10.00;1.00
6421;DHT22;3243;50.958;7.012;2024-02-14T05:31:17;9.90;1.00
6421;DHT22;3243;50.958;7.012;2024-02-14T05:33:44;9.90;1.00
6421;DHT22;3243;50.958;7.012;2024-02-14T05:36:11;9.90;1.00
6421;DHT22;3243;50.958;7.012;2024-02-14T05:38:38;9.90;1.00
6421;DHT22;3243;50.958;7.012;2024-02-14T05:41:05;9.80;1.00
6421;DHT22;3243;50.958;7.012;2024-02-14T05:43:34;9.90;1.00
6421;DHT22;3243;50.958;7.012;2024-02-14T05:46:01;9.90;1.00
6421;DHT22;3243;50.958;7.012;2024-02-14T05:48:28;9.80;1.00
6421;DHT22;3243;50.958;7.012;2024-02-14T05:50:55;9.80;1.00
6421;DHT22;3243;50.958;7.012;2024-02-14T05:53:22;9.90;1.00
6421;DHT22;3243;50.958;7.012;2024-02-14T05:55:48;9.90;35.20
6421;DHT22;3243;50.958;7.012;2024-02-14T05:58:15;11.20;81.70
6421;DHT22;3243;50.958;7.012;2024-02-14T06:00:42;9.80;99.90
6421;DHT22;3243;50.958;7.012;2024-02-14T06:03:09;9.80;99.90
6421;DHT22;3243;50.958;7.012;2024-02-14T06:05:36;9.80;99.90
6421;DHT22;3243;50.958;7.012;2024-02-14T06:08:03;9.80;99.90
6421;DHT22;3243;50.958;7.012;2024-02-14T06:10:30;9.80;99.90
6421;DHT22;3243;50.958;7.012;2024-02-14T06:12:57;9.80;1.00
6421;DHT22;3243;50.958;7.012;2024-02-14T06:15:24;9.80;6.00
6421;DHT22;3243;50.958;7.012;2024-02-14T06:17:50;9.70;99.90
6421;DHT22;3243;50.958;7.012;2024-02-14T06:20:18;9.70;99.90
6421;DHT22;3243;50.958;7.012;2024-02-14T06:22:45;9.60;99.90
6421;DHT22;3243;50.958;7.012;2024-02-14T06:25:26;9.70;1.00
6421;DHT22;3243;50.958;7.012;2024-02-14T06:27:53;9.70;17.80
6421;DHT22;3243;50.958;7.012;2024-02-14T06:30:23;9.70;55.90
6421;DHT22;3243;50.958;7.012;2024-02-14T06:32:52;9.70;17.50
6421;DHT22;3243;50.958;7.012;2024-02-14T06:35:19;9.70;35.80
6421;DHT22;3243;50.958;7.012;2024-02-14T06:37:47;9.70;99.90
6421;DHT22;3243;50.958;7.012;2024-02-14T06:40:28;9.70;99.90
6421;DHT22;3243;50.958;7.012;2024-02-14T06:42:56;9.70;1.00
6421;DHT22;3243;50.958;7.012;2024-02-14T06:45:28;9.70;1.00
6421;DHT22;3243;50.958;7.012;2024-02-14T06:47:55;9.70;1.00
6421;DHT22;3243;50.958;7.012;2024-02-14T06:50:22;9.80;99.90
6421;DHT22;3243;50.958;7.012;2024-02-14T06:52:52;9.90;99.90
6421;DHT22;3243;50.958;7.012;2024-02-14T06:55:19;9.90;91.70
6421;DHT22;3243;50.958;7.012;2024-02-14T06:57:45;9.90;10.40
6421;DHT22;3243;50.958;7.012;2024-02-14T07:00:13;10.00;1.00
6421;DHT22;3243;50.958;7.012;2024-02-14T07:02:40;10.00;1.00
6421;DHT22;3243;50.958;7.012;2024-02-14T07:05:07;10.10;1.00
6421;DHT22;3243;50.958;7.012;2024-02-14T07:07:34;10.10;1.00
6421;DHT22;3243;50.958;7.012;2024-02-14T07:10:01;10.10;1.00
6421;DHT22;3243;50.958;7.012;2024-02-14T07:12:28;10.10;99.90
6421;DHT22;3243;50.958;7.012;2024-02-14T07:14:57;10.20;99.90
6421;DHT22;3243;50.958;7.012;2024-02-14T07:17:24;10.10;99.90
6421;DHT22;3243;50.958;7.012;2024-02-14T07:19:51;10.30;99.90
6421;DHT22;3243;50.958;7.012;2024-02-14T07:22:18;10.20;99.90
6421;DHT22;3243;50.958;7.012;2024-02-14T07:24:48;10.30;99.90
6421;DHT22;3243;50.958;7.012;2024-02-14T07:27:15;10.20;99.90
6421;DHT22;3243;50.958;7.012;2024-02-14T07:32:11;10.20;99.90
6421;DHT22;3243;50.958;7.012;2024-02-14T07:34:39;10.20;99.90
6421;DHT22;3243;50.958;7.012;2024-02-14T07:37:07;10.20;99.90
6421;DHT22;3243;50.958;7.012;2024-02-14T07:39:34;10.20;99.90
6421;DHT22;3243;50.958;7.012;2024-02-14T07:42:04;10.30;99.90
6421;DHT22;3243;50.958;7.012;2024-02-14T07:44:31;10.30;99.90
6421;DHT22;3243;50.958;7.012;2024-02-14T07:46:58;10.30;99.90
6421;DHT22;3243;50.958;7.012;2024-02-14T07:49:29;10.30;99.90
6421;DHT22;3243;50.958;7.012;2024-02-14T07:54:24;10.40;99.90
6421;DHT22;3243;50.958;7.012;2024-02-14T07:59:18;10.50;48.40
6421;DHT22;3243;50.958;7.012;2024-02-14T08:01:46;10.60;41.30
6421;DHT22;3243;50.958;7.012;2024-02-14T08:06:44;10.70;7.50
6421;DHT22;3243;50.958;7.012;2024-02-14T08:09:11;10.70;8.80
6421;DHT22;3243;50.958;7.012;2024-02-14T08:14:05;10.90;1.00
6421;DHT22;3243;50.958;7.012;2024-02-14T08:16:32;10.90;1.00
6421;DHT22;3243;50.958;7.012;2024-02-14T08:18:59;11.00;1.00
6421;DHT22;3243;50.958;7.012;2024-02-14T08:21:27;11.10;1.00
6421;DHT22;3243;50.958;7.012;2024-02-14T08:23:58;11.20;1.00
6421;DHT22;3243;50.958;7.012;2024-02-14T08:26:27;11.30;1.00
6421;DHT22;3243;50.958;7.012;2024-02-14T08:28:54;11.30;1.00
6421;DHT22;3243;50.958;7.012;2024-02-14T08:31:21;11.40;1.00
6421;DHT22;3243;50.958;7.012;2024-02-14T08:33:48;11.40;1.00
6421;DHT22;3243;50.958;7.012;2024-02-14T08:36:15;11.40;1.00
6421;DHT22;3243;50.958;7.012;2024-02-14T08:38:48;11.40;1.00
6421;DHT22;3243;50.958;7.012;2024-02-14T08:43:44;11.50;1.00
6421;DHT22;3243;50.958;7.012;2024-02-14T08:46:14;11.60;1.00
6421;DHT22;3243;50.958;7.012;2024-02-14T08:48:42;11.60;1.00
6421;DHT22;3243;50.958;7.012;2024-02-14T08:51:15;11.70;1.00
6421;DHT22;3243;50.958;7.012;2024-02-14T08:53:43;11.70;1.00
6421;DHT22;3243;50.958;7.012;2024-02-14T08:56:10;11.70;1.00
6421;DHT22;3243;50.958;7.012;2024-02-14T09:01:05;11.80;1.00
6421;DHT22;3243;50.958;7.012;2024-02-14T09:03:41;11.80;1.00
6421;DHT22;3243;50.958;7.012;2024-02-14T09:06:10;11.80;1.00
6421;DHT22;3243;50.958;7.012;2024-02-14T09:08:37;11.90;1.00
6421;DHT22;3243;50.958;7.012;2024-02-14T09:11:04;11.90;1.00
6421;DHT22;3243;50.958;7.012;2024-02-14T09:13:31;12.00;1.00
6421;DHT22;3243;50.958;7.012;2024-02-14T09:15:57;12.10;1.00
6421;DHT22;3243;50.958;7.012;2024-02-14T09:18:24;12.20;1.00
6421;DHT22;3243;50.958;7.012;2024-02-14T09:20:52;12.30;99.90
6421;DHT22;3243;50.958;7.012;2024-02-14T09:23:19;12.30;99.90
6421;DHT22;3243;50.958;7.012;2024-02-14T09:25:49;12.30;99.90
6421;DHT22;3243;50.958;7.012;2024-02-14T09:28:16;12.40;99.90
6421;DHT22;3243;50.958;7.012;2024-02-14T09:30:43;12.50;99.90
6421;DHT22;3243;50.958;7.012;2024-02-14T09:35:38;12.70;99.90
6421;DHT22;3243;50.958;7.012;2024-02-14T09:38:11;12.70;99.90
6421;DHT22;3243;50.958;7.012;2024-02-14T09:40:42;12.90;99.90
6421;DHT22;3243;50.958;7.012;2024-02-14T09:43:34;13.00;99.90
6421;DHT22;3243;50.958;7.012;2024-02-14T09:46:02;13.00;99.90
6421;DHT22;3243;50.958;7.012;2024-02-14T09:48:34;13.00;99.90
6421;DHT22;3243;50.958;7.012;2024-02-14T09:51:02;13.00;99.90
6421;DHT22;3243;50.958;7.012;2024-02-14T09:53:29;13.00;99.90
6421;DHT22;3243;50.958;7.012;2024-02-14T09:55:57;13.00;99.90
6421;DHT22;3243;50.958;7.012;2024-02-14T09:58:25;13.20;99.90
6421;DHT22;3243;50.958;7.012;2024-02-14T10:00:53;13.20;99.90
6421;DHT22;3243;50.958;7.012;2024-02-14T10:03:20;13.20;99.90
6421;DHT22;3243;50.958;7.012;2024-02-14T10:05:47;13.20;99.90
6421;DHT22;3243;50.958;7.012;2024-02-14T10:08:15;13.20;99.90
6421;DHT22;3243;50.958;7.012;2024-02-14T10:10:42;13.30;99.90
6421;DHT22;3243;50.958;7.012;2024-02-14T10:13:10;13.30;99.90
6421;DHT22;3243;50.958;7.012;2024-02-14T10:15:37;13.30;99.90
6421;DHT22;3243;50.958;7.012;2024-02-14T10:18:04;13.20;99.90
6421;DHT22;3243;50.958;7.012;2024-02-14T10:20:31;13.20;99.90
6421;DHT22;3243;50.958;7.012;2024-02-14T10:23:01;13.20;99.90
6421;DHT22;3243;50.958;7.012;2024-02-14T10:25:34;13.30;99.90
6421;DHT22;3243;50.958;7.012;2024-02-14T10:28:07;13.00;99.90
6421;DHT22;3243;50.958;7.012;2024-02-14T10:30:37;13.00;1.00
6421;DHT22;3243;50.958;7.012;2024-02-14T10:33:07;12.90;1.00
6421;DHT22;3243;50.958;7.012;2024-02-14T10:35:50;12.90;1.00
6421;DHT22;3243;50.958;7.012;2024-02-14T10:38:19;12.90;1.00
6421;DHT22;3243;50.958;7.012;2024-02-14T10:40:47;12.90;1.00
6421;DHT22;3243;50.958;7.012;2024-02-14T10:43:15;12.90;1.00
6421;DHT22;3243;50.958;7.012;2024-02-14T10:45:42;13.10;1.00
6421;DHT22;3243;50.958;7.012;2024-02-14T10:48:12;13.40;99.90
6421;DHT22;3243;50.958;7.012;2024-02-14T10:50:43;13.40;99.90
6421;DHT22;3243;50.958;7.012;2024-02-14T10:53:13;13.50;99.90
6421;DHT22;3243;50.958;7.012;2024-02-14T10:55:46;13.60;99.90
6421;DHT22;3243;50.958;7.012;2024-02-14T10:58:16;13.60;99.90
6421;DHT22;3243;50.958;7.012;2024-02-14T11:00:44;13.50;99.90
6421;DHT22;3243;50.958;7.012;2024-02-14T11:03:11;13.60;99.90
6421;DHT22;3243;50.958;7.012;2024-02-14T11:05:48;13.50;99.90
6421;DHT22;3243;50.958;7.012;2024-02-14T11:08:19;13.60;99.90
6421;DHT22;3243;50.958;7.012;2024-02-14T11:10:55;13.80;99.90
6421;DHT22;3243;50.958;7.012;2024-02-14T11:13:26;13.80;99.90
6421;DHT22;3243;50.958;7.012;2024-02-14T11:16:03;13.90;99.90
6421;DHT22;3243;50.958;7.012;2024-02-14T11:18:31;13.80;99.90
6421;DHT22;3243;50.958;7.012;2024-02-14T11:21:03;14.10;99.90
6421;DHT22;3243;50.958;7.012;2024-02-14T11:23:31;14.00;99.90
6421;DHT22;3243;50.958;7.012;2024-02-14T11:26:02;14.10;99.90
6421;DHT22;3243;50.958;7.012;2024-02-14T11:28:30;14.10;99.90
6421;DHT22;3243;50.958;7.012;2024-02-14T11:31:01;13.80;99.90
6421;DHT22;3243;50.958;7.012;2024-02-14T11:33:30;13.90;99.90
6421;DHT22;3243;50.958;7.012;2024-02-14T11:35:57;13.90;99.90
6421;DHT22;3243;50.958;7.012;2024-02-14T11:38:25;14.10;99.90
6421;DHT22;3243;50.958;7.012;2024-02-14T11:40:56;14.10;99.90
6421;DHT22;3243;50.958;7.012;2024-02-14T11:43:23;14.20;99.90
6421;DHT22;3243;50.958;7.012;2024-02-14T11:48:21;14.20;99.90
6421;DHT22;3243;50.958;7.012;2024-02-14T11:50:53;14.20;99.90
6421;DHT22;3243;50.958;7.012;2024-02-14T11:53:20;14.20;99.90
6421;DHT22;3243;50.958;7.012;2024-02-14T11:55:47;14.20;99.90
6421;DHT22;3243;50.958;7.012;2024-02-14T11:58:16;14.20;99.90
6421;DHT22;3243;50.958;7.012;2024-02-14T12:00:44;14.20;99.90
6421;DHT22;3243;50.958;7.012;2024-02-14T12:03:31;14.20;99.90
6421;DHT22;3243;50.958;7.012;2024-02-14T12:05:58;14.00;99.90
6421;DHT22;3243;50.958;7.012;2024-02-14T12:08:26;14.00;99.90
6421;DHT22;3243;50.958;7.012;2024-02-14T12:10:53;13.90;99.90
6421;DHT22;3243;50.958;7.012;2024-02-14T12:13:21;13.90;99.90
6421;DHT22;3243;50.958;7.012;2024-02-14T12:15:50;13.80;99.90
6421;DHT22;3243;50.958;7.012;2024-02-14T12:18:20;13.80;99.90
6421;DHT22;3243;50.958;7.012;2024-02-14T12:20:48;13.80;99.90
6421;DHT22;3243;50.958;7.012;2024-02-14T12:23:22;13.60;99.90
6421;DHT22;3243;50.958;7.012;2024-02-14T12:25:50;13.60;99.90
6421;DHT22;3243;50.958;7.012;2024-02-14T12:28:18;13.60;99.90
6421;DHT22;3243;50.958;7.012;2024-02-14T12:30:50;13.60;99.90
6421;DHT22;3243;50.958;7.012;2024-02-14T12:33:23;13.60;99.90
6421;DHT22;3243;50.958;7.012;2024-02-14T12:35:52;13.70;99.90
6421;DHT22;3243;50.958;7.012;2024-02-14T12:38:21;13.70;99.90
6421;DHT22;3243;50.958;7.012;2024-02-14T12:40:49;13.80;99.90
6421;DHT22;3243;50.958;7.012;2024-02-14T12:43:17;13.80;99.90
6421;DHT22;3243;50.958;7.012;2024-02-14T12:45:44;14.00;99.90
6421;DHT22;3243;50.958;7.012;2024-02-14T12:48:12;14.00;99.90
6421;DHT22;3243;50.958;7.012;2024-02-14T12:50:40;14.10;99.90
6421;DHT22;3243;50.958;7.012;2024-02-14T12:53:14;14.10;99.90
6421;DHT22;3243;50.958;7.012;2024-02-14T12:55:41;14.10;99.90
6421;DHT22;3243;50.958;7.012;2024-02-14T12:58:08;14.20;99.90
6421;DHT22;3243;50.958;7.012;2024-02-14T13:00:36;14.20;99.90
6421;DHT22;3243;50.958;7.012;2024-02-14T13:03:05;14.10;99.90
6421;DHT22;3243;50.958;7.012;2024-02-14T13:05:32;14.20;99.90
6421;DHT22;3243;50.958;7.012;2024-02-14T13:07:59;14.30;99.90
6421;DHT22;3243;50.958;7.012;2024-02-14T13:10:25;14.30;99.90
6421;DHT22;3243;50.958;7.012;2024-02-14T13:12:53;14.30;99.90
6421;DHT22;3243;50.958;7.012;2024-02-14T13:15:23;14.20;99.90
6421;DHT22;3243;50.958;7.012;2024-02-14T13:17:49;14.20;99.90
6421;DHT22;3243;50.958;7.012;2024-02-14T13:20:17;14.10;99.90
6421;DHT22;3243;50.958;7.012;2024-02-14T13:22:44;14.00;99.90
6421;DHT22;3243;50.958;7.012;2024-02-14T13:25:10;14.00;99.90
6421;DHT22;3243;50.958;7.012;2024-02-14T13:27:40;14.00;99.90
6421;DHT22;3243;50.958;7.012;2024-02-14T13:30:07;13.90;99.90
6421;DHT22;3243;50.958;7.012;2024-02-14T13:32:34;13.90;99.90
6421;DHT22;3243;50.958;7.012;2024-02-14T13:35:01;13.90;99.90
6421;DHT22;3243;50.958;7.012;2024-02-14T13:42:25;13.70;1.00
6421;DHT22;3243;50.958;7.012;2024-02-14T13:47:21;13.60;1.00
6421;DHT22;3243;50.958;7.012;2024-02-14T13:54:44;13.60;1.00
6421;DHT22;3243;50.958;7.012;2024-02-14T14:02:05;13.40;1.00
6421;DHT22;3243;50.958;7.012;2024-02-14T14:04:32;13.30;77.90
6421;DHT22;3243;50.958;7.012;2024-02-14T14:07:01;13.10;99.90
6421;DHT22;3243;50.958;7.012;2024-02-14T14:21:51;13.00;99.90
6421;DHT22;3243;50.958;7.012;2024-02-14T14:26:45;12.80;1.00
6421;DHT22;3243;50.958;7.012;2024-02-14T14:34:06;12.60;99.90
6421;DHT22;3243;50.958;7.012;2024-02-14T14:41:31;12.50;99.90
6421;DHT22;3243;50.958;7.012;2024-02-14T14:48:52;12.40;99.90
6421;DHT22;3243;50.958;7.012;2024-02-14T14:53:47;12.30;99.90
6421;DHT22;3243;50.958;7.012;2024-02-14T14:58:41;12.20;99.90
6421;DHT22;3243;50.958;7.012;2024-02-14T15:01:09;12.00;99.90
6421;DHT22;3243;50.958;7.012;2024-02-14T15:03:36;12.10;99.90
6421;DHT22;3243;50.958;7.012;2024-02-14T15:08:30;12.10;99.90
6421;DHT22;3243;50.958;7.012;2024-02-14T15:10:57;12.10;99.90
6421;DHT22;3243;50.958;7.012;2024-02-14T15:13:24;12.10;99.90
6421;DHT22;3243;50.958;7.012;2024-02-14T15:18:19;12.00;99.90
6421;DHT22;3243;50.958;7.012;2024-02-14T15:20:46;12.00;99.90
6421;DHT22;3243;50.958;7.012;2024-02-14T15:23:13;12.00;99.90
6421;DHT22;3243;50.958;7.012;2024-02-14T15:25:40;11.90;99.90
6421;DHT22;3243;50.958;7.012;2024-02-14T15:28:08;11.90;99.90
6421;DHT22;3243;50.958;7.012;2024-02-14T15:30:40;11.80;99.90
6421;DHT22;3243;50.958;7.012;2024-02-14T15:35:56;11.80;99.90
6421;DHT22;3243;50.958;7.012;2024-02-14T15:38:24;11.80;99.90
6421;DHT22;3243;50.958;7.012;2024-02-14T15:40:52;11.80;99.90
6421;DHT22;3243;50.958;7.012;2024-02-14T15:43:23;11.80;99.90
6421;DHT22;3243;50.958;7.012;2024-02-14T15:48:17;11.70;99.90
6421;DHT22;3243;50.958;7.012;2024-02-14T15:50:45;11.60;99.90
6421;DHT22;3243;50.958;7.012;2024-02-14T15:53:14;11.60;99.90
6421;DHT22;3243;50.958;7.012;2024-02-14T15:55:41;11.60;99.90
6421;DHT22;3243;50.958;7.012;2024-02-14T16:03:12;11.60;99.90
6421;DHT22;3243;50.958;7.012;2024-02-14T16:05:39;11.60;99.90
6421;DHT22;3243;50.958;7.012;2024-02-14T16:08:06;11.60;99.90
6421;DHT22;3243;50.958;7.012;2024-02-14T16:10:33;11.60;99.90
6421;DHT22;3243;50.958;7.012;2024-02-14T16:20:23;11.60;99.90
6421;DHT22;3243;50.958;7.012;2024-02-14T16:22:50;11.60;99.90
6421;DHT22;3243;50.958;7.012;2024-02-14T16:30:13;11.60;99.90
6421;DHT22;3243;50.958;7.012;2024-02-14T16:32:42;11.60;99.90
6421;DHT22;3243;50.958;7.012;2024-02-14T16:35:11;11.60;99.90
6421;DHT22;3243;50.958;7.012;2024-02-14T16:37:38;11.50;99.90
6421;DHT22;3243;50.958;7.012;2024-02-14T16:45:01;11.50;99.90
6421;DHT22;3243;50.958;7.012;2024-02-14T16:47:30;11.50;99.90
6421;DHT22;3243;50.958;7.012;2024-02-14T16:52:25;11.50;99.90
6421;DHT22;3243;50.958;7.012;2024-02-14T16:57:19;11.50;99.90
6421;DHT22;3243;50.958;7.012;2024-02-14T16:59:46;11.60;99.90
6421;DHT22;3243;50.958;7.012;2024-02-14T17:02:14;11.50;99.90
6421;DHT22;3243;50.958;7.012;2024-02-14T17:04:41;11.50;99.90
6421;DHT22;3243;50.958;7.012;2024-02-14T17:07:09;11.50;99.90
6421;DHT22;3243;50.958;7.012;2024-02-14T17:12:09;11.60;99.90
6421;DHT22;3243;50.958;7.012;2024-02-14T17:22:04;11.60;99.90
6421;DHT22;3243;50.958;7.012;2024-02-14T17:27:14;11.60;99.90
6421;DHT22;3243;50.958;7.012;2024-02-14T17:29:42;11.70;99.90
6421;DHT22;3243;50.958;7.012;2024-02-14T17:34:53;11.70;99.90
6421;DHT22;3243;50.958;7.012;2024-02-14T17:39:47;11.60;99.90
6421;DHT22;3243;50.958;7.012;2024-02-14T17:44:41;11.60;99.90
6421;DHT22;3243;50.958;7.012;2024-02-14T17:52:03;11.60;99.90
6421;DHT22;3243;50.958;7.012;2024-02-14T17:54:30;11.60;99.90
6421;DHT22;3243;50.958;7.012;2024-02-14T17:59:24;11.60;99.90
6421;DHT22;3243;50.958;7.012;2024-02-14T18:16:35;11.60;99.90
6421;DHT22;3243;50.958;7.012;2024-02-14T18:19:02;11.60;99.90
6421;DHT22;3243;50.958;7.012;2024-02-14T18:21:29;11.60;99.90
6421;DHT22;3243;50.958;7.012;2024-02-14T18:23:56;11.60;99.90
6421;DHT22;3243;50.958;7.012;2024-02-14T18:26:23;11.60;99.90
6421;DHT22;3243;50.958;7.012;2024-02-14T18:28:49;11.60;99.90
6421;DHT22;3243;50.958;7.012;2024-02-14T18:41:07;11.60;99.90
6421;DHT22;3243;50.958;7.012;2024-02-14T18:43:35;11.60;99.90
6421;DHT22;3243;50.958;7.012;2024-02-14T18:46:02;11.60;99.90
6421;DHT22;3243;50.958;7.012;2024-02-14T18:50:56;11.60;99.90
6421;DHT22;3243;50.958;7.012;2024-02-14T18:53:23;11.60;99.90
6421;DHT22;3243;50.958;7.012;2024-02-14T18:55:50;11.60;99.90
6421;DHT22;3243;50.958;7.012;2024-02-14T18:58:17;11.70;99.90
6421;DHT22;3243;50.958;7.012;2024-02-14T19:13:03;11.70;99.90
6421;DHT22;3243;50.958;7.012;2024-02-14T19:20:25;11.70;99.90
6421;DHT22;3243;50.958;7.012;2024-02-14T19:27:51;11.80;99.90
6421;DHT22;3243;50.958;7.012;2024-02-14T19:30:18;11.80;99.90
6421;DHT22;3243;50.958;7.012;2024-02-14T19:40:07;11.80;99.90
6421;DHT22;3243;50.958;7.012;2024-02-14T19:42:37;11.80;99.90
6421;DHT22;3243;50.958;7.012;2024-02-14T19:45:05;11.80;99.90
6421;DHT22;3243;50.958;7.012;2024-02-14T19:47:32;11.80;99.90
6421;DHT22;3243;50.958;7.012;2024-02-14T19:55:02;11.80;99.90
6421;DHT22;3243;50.958;7.012;2024-02-14T19:57:29;11.80;99.90
6421;DHT22;3243;50.958;7.012;2024-02-14T20:00:02;11.80;99.90
6421;DHT22;3243;50.958;7.012;2024-02-14T20:02:29;11.80;99.90
6421;DHT22;3243;50.958;7.012;2024-02-14T20:09:50;11.80;99.90
6421;DHT22;3243;50.958;7.012;2024-02-14T20:12:17;11.80;99.90
6421;DHT22;3243;50.958;7.012;2024-02-14T20:14:45;11.80;99.90